Raleigh Durham International Airport Raleigh,Durham US
ICAO: KRDU
IATA: RDU
Category: Large
Scheduled Services: Yes

Elevation: 435 ft
TransAlt. 18000 ft.

Airport Communications:
APP:124.8
ATIS:123.8
CLNC DEL:120.1
DEP:125.3
GND:121.7
ARNG OPS:49.15
RDO:122.2
TWR:119.3
UNICOM:122.95

KRDU Zoom In..

If you have problems with the map follow the link
https://www.worldairports.se/pages/airport.php?
ICAO=KRDU

Runways:

(A) RW 05L length 10000 ft width 150 ft
ILS 109.10 / hdg 52

(B) RW 05R length 7500 ft width 150 ft
ILS 109.50 / hdg 52

(C) RW 14 length 3570 ft width 100 ft
---- / hdg 142

(D) RW 23L length 7500 ft width 150 ft
ILS 108.50 / hdg 232

(E) RW 23R length 10000 ft width 150 ft
ILS 111.70 / hdg 232

(F) RW 32 length 3570 ft width 100 ft
---- / hdg 322

Location; KRDU
Day. 13 / Time. 19.51 Zulu
* Altimeter: 30.02
* Temperature: 07° c. 44.6°f.
* Wind from: 000° Speed 00 kn.
Dewpoint: 06° c.
Visibility: 1 m.
Clouds: Broken 400 ft.
Clouds: Overcast 6500 ft.
Conditions: Light Rain.Conditions: Mist.

KRDU 131951Z 00000KT 1 1/4SM -RA BR BKN004 OVC065 07/06 A3002 RMK AO2 SFC VIS 3 SLP166 P0006 T00720061


Wind - Calm.

 
 
jpsmedia worldairports.se 2019   terms of use